Time;durP1;ratioP1;P1;durP2;ratioP2;P2;SDS_P1;SDS_P2;PMS_P1;PMS_P2;Temp;Humidity;BMP_temperature;BMP_pressure;BME280_temperature;BME280_humidity;BME280_pressure;Samples;Min_cycle;Max_cycle;Signal;HPM_P1;HPM_P2
2021/05/12 00:01:54;;;;;;;7.32;3.83;;;13.10;99.90;;;;;;4988388;28;19969;-64
2021/05/12 00:04:21;;;;;;;7.50;4.10;;;13.10;99.90;;;;;;4989174;28;20089;-64
2021/05/12 00:06:47;;;;;;;8.18;3.90;;;13.10;99.90;;;;;;4989562;28;20057;-64
2021/05/12 00:09:13;;;;;;;;;;;13.00;99.90;;;;;;4988767;28;20064;-63
2021/05/12 00:11:40;;;;;;;6.47;3.85;;;13.10;99.90;;;;;;4989010;28;19926;-64
2021/05/12 00:14:06;;;;;;;9.07;4.82;;;13.10;99.90;;;;;;4989364;28;20064;-64
2021/05/12 00:16:33;;;;;;;8.05;4.80;;;13.10;99.90;;;;;;4987825;28;20060;-64
2021/05/12 00:19:00;;;;;;;8.65;5.72;;;13.10;99.90;;;;;;4989079;28;20810;-63
2021/05/12 00:21:31;;;;;;;9.10;5.03;;;13.10;99.90;;;;;;4989112;28;20045;-64
2021/05/12 00:23:59;;;;;;;11.02;5.45;;;13.10;99.90;;;;;;4989568;28;20708;-64
2021/05/12 00:26:29;;;;;;;13.57;6.57;;;13.10;99.90;;;;;;4990798;28;20132;-63
2021/05/12 00:28:55;;;;;;;10.20;6.10;;;13.10;99.90;;;;;;4985514;28;20062;-64
2021/05/12 00:31:21;;;;;;;;;;;13.10;99.90;;;;;;4988571;28;20096;-64
2021/05/12 00:33:48;;;;;;;11.43;6.30;;;13.10;99.90;;;;;;4987315;28;20536;-64
2021/05/12 00:36:15;;;;;;;;;;;13.10;99.90;;;;;;4988566;28;20168;-64
2021/05/12 00:38:42;;;;;;;10.43;6.57;;;13.10;99.90;;;;;;4988130;28;19963;-64
2021/05/12 00:41:08;;;;;;;11.63;6.00;;;13.10;99.90;;;;;;4987249;28;20060;-64
2021/05/12 00:43:34;;;;;;;;;;;13.10;99.90;;;;;;4989093;28;20058;-64
2021/05/12 00:46:01;;;;;;;10.70;6.22;;;13.10;99.90;;;;;;4988428;28;19933;-64
2021/05/12 00:48:27;;;;;;;;;;;13.20;99.90;;;;;;4988019;28;20607;-64
2021/05/12 00:50:53;;;;;;;12.88;6.85;;;13.30;99.90;;;;;;4987470;28;19972;-64
2021/05/12 00:53:21;;;;;;;;;;;13.10;99.90;;;;;;4989627;28;20670;-65
2021/05/12 00:55:49;;;;;;;10.85;6.70;;;13.20;99.90;;;;;;4988461;28;19924;-64
2021/05/12 00:58:15;;;;;;;12.20;6.57;;;13.20;99.90;;;;;;4989729;28;21432;-64
2021/05/12 01:00:42;;;;;;;10.77;6.57;;;13.30;99.90;;;;;;4979860;28;20252;-64
2021/05/12 01:03:09;;;;;;;15.63;7.35;;;13.10;99.90;;;;;;4987252;28;20108;-64
2021/05/12 01:05:59;;;;;;;13.68;7.63;;;13.10;99.90;;;;;;4985580;28;21037;-64
2021/05/12 01:08:27;;;;;;;11.77;6.63;;;13.10;99.90;;;;;;4984766;28;20103;-64
2021/05/12 01:10:55;;;;;;;12.32;6.93;;;13.20;99.90;;;;;;4987151;28;20057;-64
2021/05/12 01:13:21;;;;;;;11.30;6.90;;;13.10;99.90;;;;;;4989452;28;20095;-64
2021/05/12 01:15:48;;;;;;;12.05;6.93;;;13.20;99.90;;;;;;4985513;28;20521;-64
2021/05/12 01:18:16;;;;;;;11.45;6.82;;;13.20;99.90;;;;;;4985740;28;20064;-64
2021/05/12 01:20:52;;;;;;;11.27;6.78;;;13.10;99.90;;;;;;4986694;28;20133;-64
2021/05/12 01:23:20;;;;;;;10.98;6.32;;;13.10;99.90;;;;;;4988095;28;20449;-64
2021/05/12 01:25:47;;;;;;;10.80;6.10;;;13.10;99.90;;;;;;4988765;28;20154;-64
2021/05/12 01:28:15;;;;;;;12.15;6.88;;;13.10;99.90;;;;;;4987798;28;20119;-64
2021/05/12 01:30:41;;;;;;;11.02;6.43;;;13.20;99.90;;;;;;4985026;28;20119;-64
2021/05/12 01:33:08;;;;;;;13.13;7.50;;;13.20;99.90;;;;;;4986420;28;20089;-64
2021/05/12 01:35:34;;;;;;;11.98;6.80;;;13.10;99.90;;;;;;4984932;28;20183;-64
2021/05/12 01:38:02;;;;;;;12.82;7.20;;;13.10;99.90;;;;;;4985246;28;20053;-64
2021/05/12 01:40:28;;;;;;;12.15;7.20;;;13.10;99.90;;;;;;4984555;28;20113;-64
2021/05/12 01:42:55;;;;;;;11.48;7.22;;;13.00;99.90;;;;;;4989033;28;20058;-64
2021/05/12 01:45:21;;;;;;;11.70;6.90;;;12.90;99.90;;;;;;4989659;28;20107;-64
2021/05/12 01:47:48;;;;;;;;;;;13.00;99.90;;;;;;4989735;28;20091;-69
2021/05/12 01:50:15;;;;;;;11.93;6.95;;;13.10;99.90;;;;;;4988702;28;20437;-64
2021/05/12 01:52:43;;;;;;;13.32;7.25;;;13.10;99.90;;;;;;4989289;28;20103;-64
2021/05/12 01:55:13;;;;;;;12.25;6.22;;;13.00;99.90;;;;;;4987645;28;20136;-64
2021/05/12 01:57:41;;;;;;;12.00;6.40;;;13.00;99.90;;;;;;4987673;28;20053;-64
2021/05/12 02:00:26;;;;;;;10.15;5.53;;;13.10;99.90;;;;;;4988410;28;20061;-63
2021/05/12 02:02:54;;;;;;;10.73;6.30;;;13.00;99.90;;;;;;4992767;28;20058;-63
2021/05/12 02:05:21;;;;;;;12.13;6.28;;;12.90;99.90;;;;;;4992245;28;20321;-64
2021/05/12 02:07:48;;;;;;;11.18;7.00;;;12.90;99.90;;;;;;4991783;28;20057;-64
2021/05/12 02:10:16;;;;;;;10.70;6.57;;;12.90;99.90;;;;;;4993174;28;20057;-64
2021/05/12 02:12:43;;;;;;;11.55;7.30;;;12.80;99.90;;;;;;4989879;28;20053;-64
2021/05/12 02:15:12;;;;;;;12.30;7.70;;;12.90;99.90;;;;;;4992576;28;20061;-64
2021/05/12 02:17:39;;;;;;;12.75;7.75;;;12.90;99.90;;;;;;4990699;28;20076;-64
2021/05/12 02:20:09;;;;;;;13.10;8.13;;;12.90;99.90;;;;;;4990068;28;20050;-66
2021/05/12 02:22:35;;;;;;;14.43;8.50;;;12.90;99.90;;;;;;4989632;28;20617;-64
2021/05/12 02:25:03;;;;;;;14.65;8.77;;;12.80;99.90;;;;;;4991122;28;20057;-64
2021/05/12 02:27:31;;;;;;;15.05;9.18;;;12.90;99.90;;;;;;4989836;28;20506;-64
2021/05/12 02:30:01;;;;;;;14.60;8.80;;;12.90;99.90;;;;;;4990712;28;20053;-64
2021/05/12 02:32:27;;;;;;;16.98;9.63;;;12.90;99.90;;;;;;4991096;28;20157;-64
2021/05/12 02:34:54;;;;;;;17.02;10.00;;;12.90;99.90;;;;;;4987074;28;20076;-64
2021/05/12 02:37:21;;;;;;;14.65;9.10;;;12.90;99.90;;;;;;4989048;28;20045;-64
2021/05/12 02:39:48;;;;;;;15.55;9.38;;;12.90;99.90;;;;;;4992042;28;21212;-64
2021/05/12 02:42:15;;;;;;;14.75;9.05;;;12.90;99.90;;;;;;4987833;28;20080;-64
2021/05/12 02:44:42;;;;;;;15.88;8.98;;;12.90;99.90;;;;;;4992560;28;20137;-64
2021/05/12 02:47:09;;;;;;;14.85;9.50;;;12.90;99.90;;;;;;4987273;28;20057;-64
2021/05/12 02:49:36;;;;;;;17.58;10.15;;;13.00;99.90;;;;;;4988317;28;21434;-63
2021/05/12 02:52:04;;;;;;;14.98;9.73;;;12.90;99.90;;;;;;4990005;28;20552;-64
2021/05/12 02:54:30;;;;;;;16.38;10.65;;;12.90;99.90;;;;;;4988036;28;20046;-64
2021/05/12 02:56:57;;;;;;;16.33;10.13;;;13.00;99.90;;;;;;4988467;28;20528;-64
2021/05/12 02:59:24;;;;;;;17.10;10.10;;;12.90;99.90;;;;;;4989529;28;20054;-64
2021/05/12 03:01:51;;;;;;;14.98;9.45;;;12.90;99.90;;;;;;4990968;28;20080;-63
2021/05/12 03:04:18;;;;;;;16.83;10.20;;;12.80;99.90;;;;;;4989009;28;20142;-64
2021/05/12 03:06:45;;;;;;;18.17;10.52;;;12.80;99.90;;;;;;4989675;28;20054;-63
2021/05/12 03:09:11;;;;;;;17.40;10.60;;;12.80;99.90;;;;;;4990692;28;20056;-64
2021/05/12 03:11:38;;;;;;;17.15;10.43;;;12.80;99.90;;;;;;4989919;28;20053;-64
2021/05/12 03:14:07;;;;;;;19.80;11.10;;;12.90;99.90;;;;;;4990245;28;20607;-64
2021/05/12 03:16:33;;;;;;;18.02;10.15;;;12.80;99.90;;;;;;4990818;28;20053;-64
2021/05/12 03:19:02;;;;;;;18.02;10.88;;;12.80;99.90;;;;;;4990415;28;20053;-64
2021/05/12 03:21:29;;;;;;;18.42;10.45;;;12.90;99.90;;;;;;4992238;28;20054;-64
2021/05/12 03:23:56;;;;;;;16.52;10.52;;;12.80;99.90;;;;;;4990243;28;20062;-64
2021/05/12 03:26:22;;;;;;;17.08;10.43;;;12.80;99.90;;;;;;4993466;28;20058;-63
2021/05/12 03:28:49;;;;;;;16.58;9.80;;;12.80;99.90;;;;;;4990424;28;20053;-64
2021/05/12 03:31:15;;;;;;;19.02;10.43;;;12.80;99.90;;;;;;4991307;28;20061;-64
2021/05/12 03:33:43;;;;;;;16.60;10.55;;;12.80;99.90;;;;;;4990506;28;20424;-64
2021/05/12 03:36:11;;;;;;;16.30;10.10;;;12.80;99.90;;;;;;4989975;28;20498;-64
2021/05/12 03:38:39;;;;;;;17.52;10.88;;;12.80;99.90;;;;;;4990171;28;20057;-64
2021/05/12 03:41:06;;;;;;;16.75;10.13;;;12.80;99.90;;;;;;4992969;28;20057;-64
2021/05/12 03:43:34;;;;;;;15.38;9.50;;;12.90;99.90;;;;;;4990849;28;20080;-64
2021/05/12 03:46:01;;;;;;;20.75;10.60;;;12.80;99.90;;;;;;4991008;28;20152;-64
2021/05/12 03:48:27;;;;;;;17.98;9.40;;;12.70;99.90;;;;;;4986642;28;20566;-64
2021/05/12 03:50:54;;;;;;;14.65;8.95;;;12.80;99.90;;;;;;4986861;28;20079;-64
2021/05/12 03:53:22;;;;;;;15.95;9.80;;;12.80;99.90;;;;;;4984807;28;20072;-64
2021/05/12 03:55:48;;;;;;;15.93;9.95;;;12.90;99.90;;;;;;4983045;28;20878;-64
2021/05/12 03:58:15;;;;;;;15.80;9.50;;;12.80;99.90;;;;;;4985585;28;20085;-64
2021/05/12 04:00:43;;;;;;;16.30;10.02;;;12.80;99.90;;;;;;4989803;28;20046;-64
2021/05/12 04:03:09;;;;;;;17.73;10.13;;;12.90;99.90;;;;;;4992369;28;20059;-64
2021/05/12 04:05:36;;;;;;;19.55;11.20;;;12.90;99.90;;;;;;4990541;28;20053;-64
2021/05/12 04:08:03;;;;;;;21.85;12.60;;;12.80;99.90;;;;;;4988236;28;20572;-64
2021/05/12 04:10:30;;;;;;;22.38;13.27;;;12.70;99.90;;;;;;4989031;28;20053;-63
2021/05/12 04:12:57;;;;;;;22.92;13.63;;;12.70;99.90;;;;;;4989742;28;20046;-64
2021/05/12 04:15:24;;;;;;;24.40;14.85;;;12.70;99.90;;;;;;4990396;28;21240;-64
2021/05/12 04:17:51;;;;;;;27.88;16.42;;;12.80;99.90;;;;;;4987348;28;20050;-64
2021/05/12 04:20:19;;;;;;;33.47;16.77;;;12.80;99.90;;;;;;4990409;28;20060;-64
2021/05/12 04:22:47;;;;;;;35.33;19.13;;;12.80;99.90;;;;;;4989856;28;20069;-64
2021/05/12 04:25:16;;;;;;;39.05;20.35;;;12.80;99.90;;;;;;4989554;28;20053;-64
2021/05/12 04:27:44;;;;;;;39.08;21.48;;;12.80;99.90;;;;;;4989521;28;20054;-64
2021/05/12 04:30:12;;;;;;;37.97;20.73;;;12.80;99.90;;;;;;4990372;28;20064;-64
2021/05/12 04:32:39;;;;;;;43.92;22.83;;;12.80;99.90;;;;;;4991972;28;20240;-64
2021/05/12 04:35:07;;;;;;;48.65;25.05;;;12.70;99.90;;;;;;4992613;28;20065;-64
2021/05/12 04:37:34;;;;;;;50.42;25.60;;;12.70;99.90;;;;;;4989929;28;20068;-64
2021/05/12 04:40:01;;;;;;;45.88;23.02;;;12.80;99.90;;;;;;4989720;28;20499;-64
2021/05/12 04:42:27;;;;;;;52.17;25.83;;;12.80;99.90;;;;;;4990892;28;20072;-63
2021/05/12 04:44:54;;;;;;;50.00;26.13;;;12.80;99.90;;;;;;4991086;28;20081;-63
2021/05/12 04:47:21;;;;;;;50.80;26.20;;;12.80;99.90;;;;;;4992249;28;20133;-64
2021/05/12 04:49:48;;;;;;;49.78;26.80;;;12.80;99.90;;;;;;4989629;28;20060;-64
2021/05/12 04:52:15;;;;;;;51.42;26.00;;;12.70;99.90;;;;;;4992957;28;20054;-63
2021/05/12 04:54:41;;;;;;;50.35;25.00;;;12.70;99.90;;;;;;4989172;28;20111;-64
2021/05/12 04:57:08;;;;;;;53.83;26.17;;;12.80;99.90;;;;;;4993719;28;20329;-64
2021/05/12 04:59:35;;;;;;;57.53;25.00;;;12.70;99.90;;;;;;4991251;28;20056;-63
2021/05/12 05:02:04;;;;;;;41.83;24.13;;;12.70;99.90;;;;;;4990867;28;20132;-64
2021/05/12 05:04:30;;;;;;;47.55;23.42;;;12.70;99.90;;;;;;4990885;28;20144;-64
2021/05/12 05:06:57;;;;;;;49.95;23.45;;;12.70;99.90;;;;;;4989982;28;20061;-63
2021/05/12 05:09:23;;;;;;;42.22;23.45;;;12.70;99.90;;;;;;4989804;28;20057;-64
2021/05/12 05:11:50;;;;;;;43.42;22.83;;;12.70;99.90;;;;;;4990456;28;20092;-64
2021/05/12 05:14:17;;;;;;;42.13;22.23;;;12.70;99.90;;;;;;4989101;28;20060;-63
2021/05/12 05:16:43;;;;;;;42.53;23.17;;;12.80;99.90;;;;;;4988498;28;20730;-64
2021/05/12 05:19:11;;;;;;;40.55;22.13;;;12.70;99.90;;;;;;4989170;28;20126;-64
2021/05/12 05:21:38;;;;;;;40.00;22.13;;;12.80;99.90;;;;;;4989720;28;20505;-64
2021/05/12 05:24:04;;;;;;;40.00;22.40;;;12.70;99.90;;;;;;4990856;28;20087;-63
2021/05/12 05:26:31;;;;;;;48.22;23.85;;;12.70;99.90;;;;;;4990473;28;20757;-63
2021/05/12 05:28:58;;;;;;;39.90;21.55;;;12.70;99.90;;;;;;4989591;28;20430;-64
2021/05/12 05:31:24;;;;;;;40.00;19.80;;;12.70;99.90;;;;;;4986947;28;20058;-64
2021/05/12 05:33:51;;;;;;;43.10;21.52;;;12.70;99.90;;;;;;4989702;28;20482;-64
2021/05/12 05:36:18;;;;;;;42.72;22.20;;;12.70;99.90;;;;;;4992163;28;21386;-63
2021/05/12 05:38:45;;;;;;;35.85;20.05;;;12.60;99.90;;;;;;4993311;28;20058;-64
2021/05/12 05:41:12;;;;;;;43.55;21.92;;;12.70;99.90;;;;;;4991576;28;20666;-63
2021/05/12 05:43:38;;;;;;;40.80;21.25;;;12.70;99.90;;;;;;4991424;28;20057;-64
2021/05/12 05:46:05;;;;;;;45.38;21.80;;;12.80;99.90;;;;;;4993009;28;20069;-64
2021/05/12 05:48:34;;;;;;;38.22;20.92;;;12.80;99.90;;;;;;4991979;28;20442;-64
2021/05/12 05:51:01;;;;;;;37.97;19.55;;;12.80;99.90;;;;;;4993868;28;20529;-63
2021/05/12 05:53:28;;;;;;;;;;;12.80;99.90;;;;;;4996088;28;20054;-64
2021/05/12 05:55:55;;;;;;;34.42;19.08;;;12.70;99.90;;;;;;4994202;28;19929;-63
2021/05/12 05:58:21;;;;;;;32.03;18.42;;;12.70;99.90;;;;;;4994897;28;20070;-64
2021/05/12 06:00:54;;;;;;;36.58;19.40;;;12.70;99.90;;;;;;4990814;28;20124;-63
2021/05/12 06:03:20;;;;;;;32.70;19.50;;;12.80;99.90;;;;;;4990782;28;21534;-68
2021/05/12 06:05:48;;;;;;;32.28;20.05;;;12.90;99.90;;;;;;4997693;28;20152;-64
2021/05/12 06:15:00;;;;;;;37.05;19.05;;;12.80;99.90;;;;;;4993877;28;20435;-64
2021/05/12 06:17:27;;;;;;;28.83;18.63;;;12.80;99.90;;;;;;4988024;28;20103;-64
2021/05/12 06:19:54;;;;;;;32.35;17.85;;;12.80;99.90;;;;;;4988660;28;20081;-65
2021/05/12 06:22:20;;;;;;;27.75;17.50;;;12.70;99.90;;;;;;4993535;28;20143;-65
2021/05/12 06:24:47;;;;;;;29.42;17.95;;;12.70;99.90;;;;;;4998589;28;20103;-65
2021/05/12 06:27:13;;;;;;;31.05;18.75;;;12.70;99.90;;;;;;4995988;28;20062;-65
2021/05/12 06:29:40;;;;;;;34.03;19.20;;;12.80;99.90;;;;;;4996660;28;20056;-65
2021/05/12 06:32:08;;;;;;;;;;;12.70;99.90;;;;;;4998031;28;20146;-64
2021/05/12 06:34:34;;;;;;;30.17;17.35;;;12.80;99.90;;;;;;4997366;28;20029;-64
2021/05/12 06:37:01;;;;;;;31.85;18.77;;;12.70;99.90;;;;;;4999278;28;20148;-65
2021/05/12 06:39:28;;;;;;;28.90;17.75;;;12.70;99.90;;;;;;4998303;28;20052;-64
2021/05/12 06:41:55;;;;;;;28.17;19.65;;;12.70;99.90;;;;;;4999302;28;20084;-66
2021/05/12 06:44:22;;;;;;;34.17;19.15;;;12.70;99.90;;;;;;4996788;28;20061;-65
2021/05/12 06:46:51;;;;;;;34.10;19.45;;;12.60;99.90;;;;;;4996831;28;20054;-65
2021/05/12 06:49:18;;;;;;;33.45;19.23;;;12.80;99.90;;;;;;4997049;28;20057;-65
2021/05/12 06:51:45;;;;;;;35.47;20.77;;;12.80;99.90;;;;;;4997523;28;20149;-65
2021/05/12 06:54:11;;;;;;;;;;;12.80;99.90;;;;;;4991207;28;20079;-65
2021/05/12 06:56:38;;;;;;;32.80;19.48;;;12.80;99.90;;;;;;4998512;28;20011;-65
2021/05/12 06:59:04;;;;;;;35.70;20.23;;;12.80;99.90;;;;;;4996314;28;20060;-65
2021/05/12 07:01:31;;;;;;;34.92;20.05;;;12.90;99.90;;;;;;4998044;28;20307;-65
2021/05/12 07:03:57;;;;;;;37.63;21.38;;;12.80;99.90;;;;;;4997659;28;20057;-64
2021/05/12 07:06:25;;;;;;;35.65;21.02;;;12.70;99.90;;;;;;4998860;28;20498;-64
2021/05/12 07:08:51;;;;;;;42.38;22.27;;;12.70;99.90;;;;;;4999812;28;20081;-64
2021/05/12 07:11:18;;;;;;;;;;;12.70;99.90;;;;;;4997929;28;20085;-65
2021/05/12 07:13:44;;;;;;;39.78;22.05;;;12.70;99.90;;;;;;4999214;28;19980;-64
2021/05/12 07:16:11;;;;;;;43.58;24.35;;;12.70;99.90;;;;;;4997079;28;20148;-65
2021/05/12 07:18:37;;;;;;;43.67;23.98;;;12.70;99.90;;;;;;4996753;28;20483;-65
2021/05/12 07:21:04;;;;;;;45.30;24.65;;;12.60;99.90;;;;;;4998664;28;20542;-65
2021/05/12 07:23:32;;;;;;;45.00;24.45;;;12.60;99.90;;;;;;4997700;28;20169;-64
2021/05/12 07:25:58;;;;;;;52.50;27.60;;;12.60;99.90;;;;;;4999244;28;20077;-65
2021/05/12 07:28:25;;;;;;;;;;;12.70;99.90;;;;;;4998069;28;20168;-65
2021/05/12 07:30:52;;;;;;;51.40;26.92;;;12.70;99.90;;;;;;4998494;28;19963;-65
2021/05/12 07:33:18;;;;;;;43.47;25.00;;;12.60;99.90;;;;;;4995772;28;20071;-65
2021/05/12 07:35:46;;;;;;;46.38;26.45;;;12.70;99.90;;;;;;4995326;28;20175;-65
2021/05/12 07:38:13;;;;;;;50.47;28.00;;;12.70;99.90;;;;;;4997644;28;20106;-65
2021/05/12 07:40:40;;;;;;;44.25;25.50;;;12.70;99.90;;;;;;4998735;28;20061;-65
2021/05/12 07:43:09;;;;;;;48.20;27.30;;;12.70;99.90;;;;;;4996673;28;20175;-65
2021/05/12 07:45:37;;;;;;;43.78;26.40;;;12.80;99.90;;;;;;4997532;28;20863;-65
2021/05/12 07:48:04;;;;;;;44.40;26.65;;;12.80;99.90;;;;;;4998210;28;20061;-65
2021/05/12 07:50:31;;;;;;;48.53;26.50;;;12.80;99.90;;;;;;4997714;28;20087;-65
2021/05/12 07:52:58;;;;;;;52.22;29.23;;;12.80;99.90;;;;;;4996663;28;20115;-65
2021/05/12 07:55:25;;;;;;;47.85;27.67;;;12.90;99.90;;;;;;4995900;28;20053;-65
2021/05/12 07:57:52;;;;;;;55.90;29.02;;;12.90;99.90;;;;;;4997224;28;20061;-65
2021/05/12 08:00:20;;;;;;;54.30;28.25;;;12.90;99.90;;;;;;4996757;28;20136;-65
2021/05/12 08:02:47;;;;;;;47.50;28.77;;;13.00;99.90;;;;;;4998321;28;20312;-65
2021/05/12 08:05:13;;;;;;;;;;;12.90;99.90;;;;;;4996489;28;20104;-65
2021/05/12 08:07:40;;;;;;;52.20;27.17;;;12.90;99.90;;;;;;4997981;28;19931;-64
2021/05/12 08:10:08;;;;;;;53.33;29.85;;;13.00;99.90;;;;;;4996497;28;20105;-65
2021/05/12 08:12:34;;;;;;;46.65;27.88;;;13.00;99.90;;;;;;4995901;28;20510;-65
2021/05/12 08:15:02;;;;;;;47.50;27.88;;;13.10;99.90;;;;;;4995038;28;20081;-65
2021/05/12 08:17:29;;;;;;;45.58;27.38;;;13.10;99.90;;;;;;4996229;28;20049;-65
2021/05/12 08:19:59;;;;;;;45.78;27.00;;;13.10;99.90;;;;;;4996425;28;20588;-65
2021/05/12 08:22:26;;;;;;;53.05;29.17;;;13.00;99.90;;;;;;4996285;28;20558;-65
2021/05/12 08:24:53;;;;;;;56.00;29.08;;;13.10;99.90;;;;;;4995401;28;20399;-65
2021/05/12 08:27:19;;;;;;;57.65;29.80;;;13.10;99.90;;;;;;4994081;28;20084;-65
2021/05/12 08:29:46;;;;;;;53.55;30.67;;;13.10;99.90;;;;;;4995186;28;20058;-66
2021/05/12 08:32:15;;;;;;;52.70;30.70;;;13.00;99.90;;;;;;4994708;28;20058;-65
2021/05/12 08:34:42;;;;;;;49.38;29.17;;;13.10;99.90;;;;;;4997781;28;20434;-66
2021/05/12 08:37:08;;;;;;;48.95;28.73;;;13.20;99.90;;;;;;4994054;28;20090;-65
2021/05/12 08:39:35;;;;;;;49.45;28.25;;;13.30;99.90;;;;;;4993614;28;20058;-66
2021/05/12 08:42:03;;;;;;;56.50;30.45;;;13.20;99.90;;;;;;4994659;28;20045;-66
2021/05/12 08:44:32;;;;;;;50.33;29.75;;;13.20;99.90;;;;;;4994227;28;20533;-67
2021/05/12 08:47:00;;;;;;;50.80;30.00;;;13.30;99.90;;;;;;4993404;28;20661;-66
2021/05/12 08:49:31;;;;;;;58.53;30.90;;;13.30;99.90;;;;;;4993722;28;20096;-66
2021/05/12 08:52:00;;;;;;;45.72;28.27;;;13.30;99.90;;;;;;4994232;28;20081;-66
2021/05/12 08:54:26;;;;;;;52.55;29.73;;;13.40;99.90;;;;;;4995799;28;20054;-65
2021/05/12 08:56:53;;;;;;;53.08;29.65;;;13.40;99.90;;;;;;4994050;28;20140;-65
2021/05/12 08:59:19;;;;;;;;;;;13.40;99.90;;;;;;4997541;28;20463;-66
2021/05/12 09:01:46;;;;;;;60.33;27.98;;;13.40;99.90;;;;;;4993313;28;19987;-65
2021/05/12 09:04:12;;;;;;;52.15;27.67;;;13.40;99.90;;;;;;4992888;28;20084;-65
2021/05/12 09:06:40;;;;;;;47.15;26.02;;;13.40;99.90;;;;;;4993391;28;20061;-66
2021/05/12 09:09:07;;;;;;;45.72;27.20;;;13.30;99.90;;;;;;4989949;28;20573;-65
2021/05/12 09:11:34;;;;;;;50.13;27.25;;;13.30;99.90;;;;;;4992367;28;20104;-66
2021/05/12 09:14:01;;;;;;;49.80;28.92;;;13.40;99.90;;;;;;4993418;28;20085;-66
2021/05/12 09:16:29;;;;;;;49.40;27.80;;;13.40;99.90;;;;;;4995907;28;20049;-66
2021/05/12 09:19:04;;;;;;;47.05;26.98;;;13.40;99.90;;;;;;4994553;28;20145;-66
2021/05/12 09:21:49;;;;;;;43.83;26.33;;;13.40;99.90;;;;;;4992760;28;20396;-66
2021/05/12 09:24:28;;;;;;;47.78;27.10;;;13.30;99.90;;;;;;4993488;28;20081;-65
2021/05/12 09:26:57;;;;;;;47.53;27.00;;;13.30;99.90;;;;;;4993094;28;20057;-66
2021/05/12 09:29:26;;;;;;;51.67;28.48;;;13.40;99.90;;;;;;4995825;28;20129;-66
2021/05/12 09:32:02;;;;;;;47.47;28.35;;;13.50;99.90;;;;;;4989252;28;21175;-64
2021/05/12 09:34:29;;;;;;;51.30;28.43;;;13.40;99.90;;;;;;4986163;28;20050;-64
2021/05/12 09:36:56;;;;;;;47.70;29.17;;;13.50;99.90;;;;;;4978899;28;20088;-65
2021/05/12 09:39:23;;;;;;;45.45;27.45;;;13.50;99.90;;;;;;4987964;28;20521;-65
2021/05/12 09:41:49;;;;;;;47.65;29.23;;;13.40;99.90;;;;;;4988179;28;20220;-65
2021/05/12 09:44:26;;;;;;;;;;;13.50;99.90;;;;;;4986057;28;20084;-65
2021/05/12 09:46:53;;;;;;;47.63;28.93;;;13.50;99.90;;;;;;4987874;28;19932;-65
2021/05/12 09:49:19;;;;;;;49.33;28.73;;;13.60;99.90;;;;;;4984653;28;20118;-66
2021/05/12 09:51:48;;;;;;;42.80;26.52;;;13.60;99.90;;;;;;4985798;28;20530;-66
2021/05/12 09:54:19;;;;;;;50.30;29.40;;;13.70;99.90;;;;;;4984827;28;20294;-64
2021/05/12 09:56:49;;;;;;;49.20;28.25;;;13.70;99.90;;;;;;4982649;28;20045;-65
2021/05/12 09:59:18;;;;;;;45.10;25.88;;;13.70;99.90;;;;;;4988998;28;20140;-65
2021/05/12 10:01:50;;;;;;;48.13;28.73;;;13.70;99.90;;;;;;4991027;28;20050;-65
2021/05/12 10:04:33;;;;;;;45.05;27.20;;;13.50;99.90;;;;;;4992151;28;20046;-64
2021/05/12 10:07:02;;;;;;;48.13;29.05;;;13.50;99.90;;;;;;4997803;28;20050;-65
2021/05/12 10:09:31;;;;;;;46.67;27.55;;;13.50;99.90;;;;;;4995946;28;20139;-64
2021/05/12 10:12:09;;;;;;;48.17;28.13;;;13.50;99.90;;;;;;4994588;28;20061;-64
2021/05/12 10:14:37;;;;;;;48.38;27.02;;;13.50;99.90;;;;;;4995872;28;20093;-65
2021/05/12 10:17:05;;;;;;;50.35;29.42;;;13.60;99.90;;;;;;4995321;28;20085;-65
2021/05/12 10:19:33;;;;;;;47.80;26.70;;;13.60;99.90;;;;;;4995881;28;20050;-65
2021/05/12 10:22:01;;;;;;;44.63;27.25;;;13.60;99.90;;;;;;4995151;28;20152;-65
2021/05/12 10:24:29;;;;;;;44.38;27.77;;;13.60;99.90;;;;;;4998291;28;20831;-65
2021/05/12 10:26:57;;;;;;;48.65;28.25;;;13.60;99.90;;;;;;4995744;28;20561;-65
2021/05/12 10:29:24;;;;;;;46.67;27.58;;;13.70;99.90;;;;;;5000384;28;20541;-65
2021/05/12 10:31:50;;;;;;;46.40;27.13;;;13.80;99.90;;;;;;4997534;28;20127;-64
2021/05/12 10:34:35;;;;;;;47.38;28.00;;;13.90;99.90;;;;;;4997987;28;20269;-65
2021/05/12 10:37:23;;;;;;;47.95;26.42;;;13.90;99.90;;;;;;4996218;28;20056;-65
2021/05/12 10:39:51;;;;;;;;;;;14.00;99.90;;;;;;4995536;28;20100;-65
2021/05/12 10:42:43;;;;;;;46.80;26.38;;;13.90;99.90;;;;;;4995546;28;19925;-65
2021/05/12 10:45:10;;;;;;;48.72;27.38;;;13.90;99.90;;;;;;4995411;28;20042;-65
2021/05/12 10:47:37;;;;;;;40.53;24.85;;;14.10;99.90;;;;;;4995959;28;20061;-65
2021/05/12 10:50:05;;;;;;;39.30;24.73;;;14.10;99.90;;;;;;4995179;28;20424;-65
2021/05/12 10:52:31;;;;;;;41.95;25.33;;;14.20;99.90;;;;;;4995220;28;20057;-64
2021/05/12 10:54:59;;;;;;;39.38;24.33;;;14.10;99.90;;;;;;4994556;28;20073;-65
2021/05/12 10:57:48;;;;;;;39.00;24.48;;;14.10;99.90;;;;;;4996006;28;20053;-65
2021/05/12 11:00:17;;;;;;;40.42;24.02;;;14.10;99.90;;;;;;4997690;28;20056;-65
2021/05/12 11:03:01;;;;;;;39.70;24.00;;;14.00;99.90;;;;;;4994870;28;20132;-64
2021/05/12 11:05:41;;;;;;;39.85;24.30;;;14.10;99.90;;;;;;4995565;28;20060;-64
2021/05/12 11:08:16;;;;;;;46.65;26.15;;;14.20;99.90;;;;;;4994064;28;20669;-64
2021/05/12 11:10:57;;;;;;;41.22;23.63;;;14.30;99.90;;;;;;4995963;28;20108;-64
2021/05/12 11:13:25;;;;;;;48.70;25.67;;;14.30;99.90;;;;;;4995760;28;20045;-65
2021/05/12 11:15:54;;;;;;;38.65;25.15;;;14.20;99.90;;;;;;4994887;28;20100;-64
2021/05/12 11:18:50;;;;;;;39.67;24.77;;;14.40;99.90;;;;;;4996379;28;20465;-65
2021/05/12 11:21:26;;;;;;;47.75;28.35;;;14.40;99.90;;;;;;4993152;28;20141;-65
2021/05/12 11:24:11;;;;;;;47.80;28.67;;;14.40;99.90;;;;;;4997007;28;20414;-64
2021/05/12 11:26:49;;;;;;;49.35;26.98;;;14.60;99.90;;;;;;4996586;28;20054;-65
2021/05/12 11:32:07;;;;;;;43.53;25.50;;;14.70;99.90;;;;;;4994146;28;20521;-65
2021/05/12 11:34:34;;;;;;;32.85;19.70;;;14.80;99.90;;;;;;4994658;28;20049;-65
2021/05/12 11:37:06;;;;;;;32.55;19.48;;;14.70;99.90;;;;;;4982103;28;20520;-64
2021/05/12 11:39:33;;;;;;;39.10;23.85;;;14.50;99.90;;;;;;4986685;28;20155;-65
2021/05/12 11:42:00;;;;;;;32.95;20.27;;;14.70;99.90;;;;;;4993844;28;20143;-64
2021/05/12 11:44:27;;;;;;;22.55;13.63;;;14.80;99.90;;;;;;4988806;28;20325;-64
2021/05/12 11:46:54;;;;;;;21.83;14.18;;;14.70;99.90;;;;;;4992432;28;20054;-64
2021/05/12 11:49:22;;;;;;;21.42;12.25;;;14.80;99.90;;;;;;4989303;28;20332;-65
2021/05/12 11:51:51;;;;;;;20.17;12.88;;;15.00;99.90;;;;;;4985034;28;20089;-66
2021/05/12 11:54:20;;;;;;;19.98;11.63;;;14.90;99.90;;;;;;4986046;28;20612;-64
2021/05/12 11:56:49;;;;;;;19.58;10.88;;;15.00;99.90;;;;;;4985800;28;20722;-64
2021/05/12 11:59:19;;;;;;;19.77;10.75;;;14.80;99.90;;;;;;4984934;28;20076;-65
2021/05/12 12:01:48;;;;;;;17.23;11.68;;;14.80;99.90;;;;;;4979071;28;20572;-65
2021/05/12 12:04:21;;;;;;;20.20;12.52;;;14.90;99.90;;;;;;4990063;28;20471;-65
2021/05/12 12:06:48;;;;;;;23.13;14.13;;;14.80;99.90;;;;;;4990685;28;20407;-65
2021/05/12 12:09:16;;;;;;;22.48;14.18;;;14.90;99.90;;;;;;4990957;28;20045;-65
2021/05/12 12:11:44;;;;;;;22.73;13.52;;;14.80;99.90;;;;;;4991555;28;20065;-65
2021/05/12 12:14:12;;;;;;;20.50;14.90;;;14.80;99.90;;;;;;4983865;28;20668;-65
2021/05/12 12:16:41;;;;;;;27.50;16.58;;;14.80;99.90;;;;;;4980273;28;20128;-65
2021/05/12 12:19:09;;;;;;;26.05;16.95;;;15.00;99.90;;;;;;4992063;28;20080;-65
2021/05/12 12:21:36;;;;;;;30.60;18.02;;;15.00;99.90;;;;;;4994341;28;20068;-65
2021/05/12 12:24:08;;;;;;;27.80;19.20;;;14.90;99.90;;;;;;4994521;28;20081;-65
2021/05/12 12:26:36;;;;;;;24.92;17.75;;;14.90;99.90;;;;;;4983305;28;20090;-65
2021/05/12 12:29:06;;;;;;;28.15;16.48;;;14.90;99.90;;;;;;4989313;28;20084;-65
2021/05/12 12:31:35;;;;;;;26.17;16.48;;;14.80;99.90;;;;;;4988942;28;20061;-65
2021/05/12 12:34:24;;;;;;;27.83;16.45;;;14.80;99.90;;;;;;4991586;28;20482;-65
2021/05/12 12:36:59;;;;;;;31.23;15.65;;;14.70;99.90;;;;;;4986735;28;20045;-65
2021/05/12 12:39:57;;;;;;;25.48;14.77;;;14.30;99.90;;;;;;4994318;28;20060;-65
2021/05/12 12:42:27;;;;;;;26.88;16.30;;;14.20;99.90;;;;;;4995705;28;20062;-64
2021/05/12 12:44:54;;;;;;;28.77;17.95;;;14.10;99.90;;;;;;4996606;28;20052;-65
2021/05/12 12:47:22;;;;;;;21.30;13.15;;;14.10;99.90;;;;;;4993676;28;20136;-65
2021/05/12 12:49:55;;;;;;;22.80;13.52;;;14.00;99.90;;;;;;4993720;28;20494;-64
2021/05/12 12:52:23;;;;;;;21.38;11.98;;;14.00;99.90;;;;;;4994596;28;20060;-65